Time;durP1;ratioP1;P1;durP2;ratioP2;P2;SDS_P1;SDS_P2;PMS_P1;PMS_P2;Temp;Humidity;BMP_temperature;BMP_pressure;BME280_temperature;BME280_humidity;BME280_pressure;Samples;Min_cycle;Max_cycle;Signal;HPM_P1;HPM_P2
2022/08/17 00:01:15;;;;;;;;;;;25.80;41.40;;;23.85;44.29;100674.22;12253034;19;19911;-87
2022/08/17 00:05:16;;;;;;;;;;;25.60;41.40;;;23.76;43.95;100672.59;12255631;19;19927;-87
2022/08/17 00:09:18;;;;;;;;;;;25.60;41.50;;;23.53;43.94;100631.66;12252322;19;20345;-86
2022/08/17 00:13:23;;;;;;;;;;;25.60;41.50;;;23.85;44.42;100694.75;12255412;19;20667;-86
2022/08/17 00:17:25;;;;;;;;;;;25.50;41.60;;;23.74;44.11;100676.44;12253088;19;19938;-86
2022/08/17 00:21:27;;;;;;;;;;;25.40;41.60;;;23.39;44.60;100626.03;12249442;19;19965;-86
2022/08/17 00:25:29;;;;;;;;;;;25.40;41.80;;;23.68;44.69;100669.06;12253243;19;20279;-87
2022/08/17 00:29:30;;;;;;;;;;;25.30;41.80;;;23.38;44.78;100624.34;12250491;19;20484;-87
2022/08/17 00:33:32;;;;;;;;;;;25.30;41.90;;;23.70;44.46;100678.56;12251512;19;19922;-86
2022/08/17 00:37:34;;;;;;;;;;;25.30;41.80;;;23.60;44.39;100688.59;12250664;19;19938;-85
2022/08/17 00:41:36;;;;;;;;;;;25.20;41.80;;;23.01;44.60;100594.78;12248260;19;19918;-86
2022/08/17 00:45:37;;;;;;;;;;;25.20;41.80;;;23.54;44.66;100682.13;12251845;19;19942;-87
2022/08/17 00:49:39;;;;;;;;;;;25.20;41.90;;;23.43;44.72;100658.50;12248498;19;19936;-87
2022/08/17 00:53:46;;;;;;;;;;;25.10;41.90;;;23.06;44.73;100611.94;12250154;19;20254;-86
2022/08/17 00:57:50;;;;;;;;;;;25.10;41.90;;;23.33;44.38;100684.47;12250400;19;19918;-87
2022/08/17 01:01:52;;;;;;;;;;;25.10;41.90;;;23.23;44.46;100683.84;12248498;19;20290;-86
2022/08/17 01:05:57;;;;;;;;;;;25.00;41.80;;;23.19;44.87;100694.81;12252201;19;19922;-87
2022/08/17 01:10:02;;;;;;;;;;;24.90;41.80;;;23.04;44.75;100687.69;12246623;19;19911;-86
2022/08/17 01:14:03;;;;;;;;;;;24.80;41.90;;;22.99;45.06;100693.50;12251994;19;19941;-86
2022/08/17 01:18:06;;;;;;;;;;;24.70;42.00;;;22.96;45.00;100693.84;12251343;19;19943;-85
2022/08/17 01:22:07;;;;;;;;;;;24.70;42.20;;;22.96;45.17;100702.66;12250319;19;19915;-86
2022/08/17 01:26:09;;;;;;;;;;;24.70;42.30;;;22.88;45.38;100684.00;12251165;19;19919;-85
2022/08/17 01:30:12;;;;;;;;;;;24.60;42.40;;;22.85;45.13;100679.00;12245429;19;20314;-86
2022/08/17 01:34:15;;;;;;;;;;;24.60;42.50;;;22.85;45.12;100676.34;12249208;19;20306;-86
2022/08/17 01:38:17;;;;;;;;;;;24.70;42.60;;;22.99;45.16;100700.69;12251941;19;19949;-86
2022/08/17 01:42:44;;;;;;;;;;;24.80;42.70;;;22.92;45.35;100687.97;12253832;19;19935;-86
2022/08/17 01:46:46;;;;;;;;;;;24.60;42.60;;;22.96;45.36;100701.84;12253438;19;19923;-86
2022/08/17 01:50:50;;;;;;;;;;;24.60;42.50;;;22.78;45.09;100680.66;12249645;19;19921;-86
2022/08/17 01:54:52;;;;;;;;;;;24.70;42.40;;;22.79;45.18;100700.97;12253005;19;19921;-86
2022/08/17 01:58:55;;;;;;;;;;;24.50;42.40;;;22.52;45.23;100655.00;12252245;19;19911;-86
2022/08/17 02:02:56;;;;;;;;;;;24.70;42.60;;;22.48;45.38;100659.00;12248883;19;19927;-86
2022/08/17 02:06:58;;;;;;;;;;;24.40;42.50;;;22.44;45.39;100641.69;12252470;19;19922;-86
2022/08/17 02:11:02;;;;;;;;;;;24.50;42.60;;;22.76;45.78;100693.28;12248658;19;19913;-86
2022/08/17 02:15:05;;;;;;;;;;;24.50;42.70;;;22.65;45.77;100680.31;12251441;19;19927;-86
2022/08/17 02:19:10;;;;;;;;;;;24.40;42.60;;;22.78;45.87;100711.78;12250027;19;19924;-86
2022/08/17 02:23:12;;;;;;;;;;;24.40;42.70;;;22.76;45.88;100711.94;12250762;19;20365;-86
2022/08/17 02:27:13;;;;;;;;;;;24.40;42.70;;;22.64;45.47;100694.63;12251342;19;20378;-86
2022/08/17 02:31:15;;;;;;;;;;;24.40;42.60;;;22.59;45.43;100707.59;12248218;19;19918;-86
2022/08/17 02:35:17;;;;;;;;;;;24.70;42.80;;;22.42;45.76;100691.59;12251112;19;20270;-86
2022/08/17 02:39:18;;;;;;;;;;;24.30;42.60;;;22.41;45.81;100692.56;12250573;19;20427;-85
2022/08/17 02:43:20;;;;;;;;;;;24.30;42.70;;;22.48;45.83;100712.22;12251261;19;20247;-86
2022/08/17 02:47:21;;;;;;;;;;;24.20;42.70;;;22.31;45.85;100679.41;12250903;19;19923;-85
2022/08/17 02:51:24;;;;;;;;;;;24.10;42.70;;;22.33;46.14;100695.19;12247695;19;19983;-86
2022/08/17 02:55:29;;;;;;;;;;;24.40;42.80;;;22.34;45.96;100699.53;12249693;19;19911;-86
2022/08/17 02:59:31;;;;;;;;;;;24.10;42.80;;;22.29;45.77;100702.69;12248286;19;19911;-86
2022/08/17 03:03:34;;;;;;;;;;;24.10;42.80;;;22.09;45.90;100683.47;12245791;19;19982;-86
2022/08/17 03:07:37;;;;;;;;;;;24.10;42.80;;;22.13;46.18;100707.91;12244854;19;19911;-86
2022/08/17 03:11:38;;;;;;;;;;;24.00;42.70;;;22.03;46.27;100702.72;12244135;19;19914;-86
2022/08/17 03:15:43;;;;;;;;;;;23.90;42.50;;;21.93;46.26;100710.00;12245777;19;19948;-86
2022/08/17 03:19:45;;;;;;;;;;;23.80;42.70;;;21.75;46.23;100687.97;12242478;19;19934;-86
2022/08/17 03:23:47;;;;;;;;;;;23.70;42.80;;;21.75;46.38;100703.91;12241846;19;19930;-86
2022/08/17 03:27:49;;;;;;;;;;;23.70;42.90;;;21.59;46.37;100678.09;12242929;19;20379;-85
2022/08/17 03:31:51;;;;;;;;;;;23.60;43.00;;;21.45;46.38;100668.03;12240768;19;19939;-85
2022/08/17 03:35:53;;;;;;;;;;;23.50;43.10;;;21.54;46.79;100686.53;12243345;19;19974;-85
2022/08/17 03:39:54;;;;;;;;;;;23.80;43.10;;;21.57;46.34;100704.81;12242736;19;19942;-86
2022/08/17 03:43:56;;;;;;;;;;;23.40;42.90;;;21.53;46.74;100699.97;12243565;19;19919;-85
2022/08/17 03:56:43;;;;;;;;;;;23.30;43.50;;;21.52;46.46;100693.84;12254440;19;19925;-86
2022/08/17 04:00:45;;;;;;;;;;;23.30;43.70;;;21.44;46.96;100677.81;12251814;19;20344;-85
2022/08/17 04:04:49;;;;;;;;;;;23.30;43.80;;;21.58;46.84;100693.19;12255617;19;19982;-86
2022/08/17 04:08:51;;;;;;;;;;;23.30;44.20;;;21.60;46.96;100693.88;12251087;19;19915;-86
2022/08/17 04:12:53;;;;;;;;;;;23.40;43.90;;;21.67;46.74;100698.56;12251081;19;19930;-85
2022/08/17 04:16:55;;;;;;;;;;;23.60;43.90;;;21.67;46.84;100691.41;12251890;19;19918;-85
2022/08/17 04:20:57;;;;;;;;;;;23.40;43.90;;;21.75;46.95;100703.91;12252235;19;19942;-85
2022/08/17 04:24:58;;;;;;;;;;;23.60;44.00;;;21.64;47.00;100683.75;12254341;19;19935;-85
2022/08/17 04:29:00;;;;;;;;;;;23.40;43.90;;;21.69;47.00;100694.75;12251062;19;20272;-86
2022/08/17 04:33:08;;;;;;;;;;;23.50;44.00;;;21.78;47.33;100708.91;12248265;19;19923;-86
2022/08/17 04:37:09;;;;;;;;;;;23.50;44.00;;;21.76;47.02;100714.38;12251028;19;19915;-85
2022/08/17 04:45:39;;;;;;;;;;;23.60;43.90;;;21.62;47.20;100713.16;12255437;19;19919;-85
2022/08/17 04:49:40;;;;;;;;;;;23.40;43.90;;;21.35;47.18;100676.91;12250353;19;19935;-85
2022/08/17 04:53:44;;;;;;;;;;;23.40;44.00;;;21.58;46.89;100722.44;12252159;19;19907;-85
2022/08/17 04:57:46;;;;;;;;;;;23.60;44.00;;;21.51;46.77;100737.31;12251045;19;19943;-85
2022/08/17 05:01:49;;;;;;;;;;;23.40;43.90;;;21.36;47.27;100723.75;12250707;19;19943;-86
2022/08/17 05:05:50;;;;;;;;;;;23.40;44.00;;;21.14;47.31;100695.88;12251220;19;19971;-86
2022/08/17 05:09:52;;;;;;;;;;;23.30;44.00;;;21.32;47.42;100733.00;12249350;19;19919;-86
2022/08/17 05:13:54;;;;;;;;;;;23.30;44.20;;;21.06;47.47;100698.44;12250496;19;19970;-86
2022/08/17 05:17:56;;;;;;;;;;;23.20;44.30;;;21.35;46.95;100745.16;12250757;19;19923;-86
2022/08/17 05:21:58;;;;;;;;;;;23.20;44.40;;;21.38;47.56;100747.53;12248764;19;19949;-86
2022/08/17 05:26:00;;;;;;;;;;;23.20;44.40;;;21.45;47.52;100748.59;12255296;19;19910;-86
2022/08/17 05:30:02;;;;;;;;;;;23.30;45.00;;;21.59;47.61;100753.31;12248758;19;20270;-87
2022/08/17 05:34:04;;;;;;;;;;;23.60;44.80;;;21.43;47.76;100718.66;12247286;19;20460;-85
2022/08/17 05:38:07;;;;;;;;;;;23.40;44.80;;;21.24;47.67;100669.19;12247026;19;20404;-86
2022/08/17 05:42:08;;;;;;;;;;;23.60;45.00;;;21.46;48.05;100685.66;12247210;19;19927;-86
2022/08/17 05:46:18;;;;;;;;;;;23.50;45.00;;;21.54;47.66;100677.72;12248458;19;19930;-84
2022/08/17 05:50:24;;;;;;;;;;;23.70;45.10;;;22.07;47.54;100751.94;12244583;19;20409;-85
2022/08/17 05:54:47;;;;;;;;;;;23.70;45.20;;;22.18;47.75;100764.16;12245809;19;19926;-85
2022/08/17 05:59:07;;;;;;;;;;;23.80;45.50;;;22.26;47.73;100768.69;12247003;19;19918;-86
2022/08/17 06:03:21;;;;;;;;;;;23.90;45.90;;;22.36;48.07;100776.53;12244638;19;19949;-86
2022/08/17 06:07:26;;;;;;;;;;;23.90;45.60;;;22.43;48.09;100773.06;12245775;19;19974;-86
2022/08/17 06:11:38;;;;;;;;;;;24.00;45.60;;;22.06;48.01;100701.56;12243897;19;20024;-87
2022/08/17 06:16:05;;;;;;;;;;;24.10;45.80;;;22.61;47.85;100783.63;12244952;19;19922;-86
2022/08/17 06:20:10;;;;;;;;;;;24.20;45.90;;;22.24;48.16;100707.66;12243026;19;19927;-86
2022/08/17 06:24:20;;;;;;;;;;;24.30;45.90;;;22.74;48.06;100786.66;12243580;19;19930;-85
2022/08/17 06:28:36;;;;;;;;;;;24.40;46.10;;;22.20;48.33;100686.88;12244963;19;19919;-86
2022/08/17 06:32:41;;;;;;;;;;;24.40;45.90;;;22.37;48.16;100696.56;12241548;19;19919;-87
2022/08/17 06:36:48;;;;;;;;;;;24.50;46.00;;;23.01;48.37;100782.09;12243871;19;20321;-86
2022/08/17 06:41:16;;;;;;;;;;;24.60;46.20;;;22.94;48.04;100749.91;12242638;19;19918;-87
2022/08/17 06:45:35;;;;;;;;;;;24.70;46.30;;;23.29;48.60;100769.28;12241733;19;19931;-86
2022/08/17 06:49:50;;;;;;;;;;;24.80;46.40;;;23.50;48.43;100786.59;12239781;19;19919;-87
2022/08/17 06:54:03;;;;;;;;;;;25.00;46.60;;;23.40;48.38;100742.28;12243237;19;19945;-85
2022/08/17 06:58:06;;;;;;;;;;;25.10;46.50;;;23.80;48.67;100777.91;12243707;19;20373;-87
2022/08/17 07:02:10;;;;;;;;;;;25.30;46.60;;;23.91;48.53;100759.91;12238854;19;19910;-85
2022/08/17 07:06:23;;;;;;;;;;;25.50;46.60;;;23.96;48.22;100747.72;12243336;19;20242;-87
2022/08/17 07:10:26;;;;;;;;;;;25.60;46.10;;;24.09;48.09;100744.50;12239799;19;19933;-87
2022/08/17 07:14:51;;;;;;;;;;;25.80;45.80;;;24.40;48.20;100768.53;12243519;19;19923;-87
2022/08/17 07:18:55;;;;;;;;;;;26.00;45.60;;;24.62;48.14;100777.63;12243754;19;20242;-87
2022/08/17 07:23:12;;;;;;;;;;;26.20;45.40;;;24.67;47.89;100748.56;12240656;19;19935;-87
2022/08/17 07:27:16;;;;;;;;;;;26.40;45.40;;;25.16;48.38;100784.84;12242628;19;19914;-86
2022/08/17 07:31:17;;;;;;;;;;;26.90;45.70;;;25.13;48.00;100727.19;12249305;19;19915;-87
2022/08/17 07:35:29;;;;;;;;;;;26.80;45.50;;;25.79;48.09;100777.44;12258133;19;20333;-86
2022/08/17 07:39:30;;;;;;;;;;;27.10;45.60;;;26.08;48.34;100763.25;12255608;19;19919;-86
2022/08/17 07:43:36;;;;;;;;;;;27.60;46.00;;;26.70;48.30;100796.81;12250004;19;21266;-87
2022/08/17 07:52:10;;;;;;;;;;;28.30;45.70;;;27.56;47.92;100802.22;12254401;19;19910;-85
2022/08/17 07:56:38;;;;;;;;;;;28.70;45.30;;;27.66;47.85;100746.34;12256776;19;20379;-86
2022/08/17 08:00:39;;;;;;;;;;;29.10;45.20;;;28.18;47.84;100771.03;12255697;19;19911;-86
2022/08/17 08:04:48;;;;;;;;;;;29.50;45.10;;;28.70;47.59;100784.91;12257207;19;20279;-85
2022/08/17 08:08:53;;;;;;;;;;;29.90;45.10;;;28.96;47.82;100763.44;12256587;19;19911;-87
2022/08/17 08:13:20;;;;;;;;;;;30.30;45.10;;;29.42;47.21;100794.97;12251767;19;20017;-85
2022/08/17 08:17:30;;;;;;;;;;;30.70;44.20;;;29.61;47.04;100787.09;12255373;19;20330;-86
2022/08/17 08:22:06;;;;;;;;;;;30.90;43.00;;;29.84;46.39;100790.22;12254347;19;19974;-88
2022/08/17 08:26:30;;;;;;;;;;;31.20;43.30;;;29.99;46.28;100788.06;12255861;19;19919;-88
2022/08/17 08:30:39;;;;;;;;;;;31.40;42.50;;;30.19;46.29;100788.03;12252597;19;19939;-85
2022/08/17 08:34:55;;;;;;;;;;;31.60;42.40;;;30.50;46.11;100801.84;12257389;19;19923;-86
2022/08/17 08:39:05;;;;;;;;;;;31.80;42.50;;;30.60;45.72;100796.81;12258466;19;19907;-86
2022/08/17 08:43:30;;;;;;;;;;;32.00;42.30;;;30.73;45.86;100790.50;12249461;19;19931;-86
2022/08/17 08:47:32;;;;;;;;;;;32.10;41.50;;;30.97;45.86;100791.63;12257060;19;19942;-84
2022/08/17 08:51:48;;;;;;;;;;;32.30;42.10;;;31.21;45.38;100793.53;12252730;19;19933;-85
2022/08/17 08:55:55;;;;;;;;;;;32.50;41.70;;;31.38;45.36;100793.00;12258446;19;19921;-86
2022/08/17 09:00:05;;;;;;;;;;;32.70;41.70;;;31.58;44.90;100793.69;12255233;19;19927;-85
2022/08/17 09:04:33;;;;;;;;;;;32.90;41.60;;;31.79;45.17;100797.03;12255368;19;19930;-84
2022/08/17 09:08:41;;;;;;;;;;;33.10;41.80;;;31.94;44.58;100792.09;12255475;19;20257;-85
2022/08/17 09:12:52;;;;;;;;;;;33.30;38.10;;;31.93;44.52;100775.06;12246654;19;20016;-86
2022/08/17 09:17:03;;;;;;;;;;;33.40;40.90;;;32.21;44.39;100799.91;12255408;19;20485;-86
2022/08/17 09:21:13;;;;;;;;;;;33.50;41.30;;;32.29;44.26;100780.69;12252217;19;20354;-85
2022/08/17 09:25:19;;;;;;;;;;;33.70;41.10;;;32.48;44.36;100773.41;12253423;19;20286;-86
2022/08/17 09:29:24;;;;;;;;;;;33.80;40.50;;;32.73;44.04;100768.69;12252280;19;19915;-85
2022/08/17 09:33:26;;;;;;;;;;;34.10;40.80;;;32.66;43.73;100723.84;12254565;19;19930;-85
2022/08/17 09:37:52;;;;;;;;;;;34.30;40.50;;;33.17;43.40;100785.53;12253848;19;19962;-86
2022/08/17 09:42:09;;;;;;;;;;;34.40;40.20;;;33.32;43.52;100776.94;12250497;19;19923;-85
2022/08/17 09:46:31;;;;;;;;;;;34.60;40.40;;;33.37;43.01;100774.34;12251857;19;19911;-84
2022/08/17 09:50:44;;;;;;;;;;;34.80;39.50;;;33.43;43.15;100775.28;12249812;19;19922;-84
2022/08/17 09:54:47;;;;;;;;;;;34.90;39.70;;;33.49;42.60;100782.50;12252923;19;19939;-85
2022/08/17 09:59:16;;;;;;;;;;;34.90;37.90;;;33.60;42.66;100783.59;12253790;19;19923;-85
2022/08/17 10:03:23;;;;;;;;;;;35.00;39.80;;;33.74;42.45;100779.56;12250561;19;19967;-86
2022/08/17 10:07:42;;;;;;;;;;;35.10;39.40;;;33.83;42.05;100767.28;12251433;19;19926;-84
2022/08/17 10:16:22;;;;;;;;;;;35.30;38.50;;;34.14;41.96;100773.41;12248956;19;19911;-86
2022/08/17 10:26:11;;;;;;;;;;;35.50;39.10;;;34.28;41.76;100768.53;12251149;19;19915;-87
2022/08/17 10:29:46;;;;;;;;;;;35.70;38.80;;;34.26;41.50;100760.63;12243158;19;19979;-84
2022/08/17 10:34:25;;;;;;;;;;;35.70;38.70;;;34.31;41.18;100768.84;12246748;19;20265;-85
2022/08/17 10:39:18;;;;;;;;;;;35.80;38.50;;;34.28;41.36;100774.75;12247622;19;19918;-86
2022/08/17 10:43:32;;;;;;;;;;;35.80;38.50;;;34.28;41.14;100768.53;12245440;19;19934;-86
2022/08/17 10:47:59;;;;;;;;;;;35.70;38.20;;;34.32;41.02;100769.66;12246549;19;19914;-85
2022/08/17 10:52:21;;;;;;;;;;;35.80;38.30;;;34.27;40.93;100764.16;12244959;19;19915;-84
2022/08/17 10:56:37;;;;;;;;;;;35.90;38.00;;;34.13;41.06;100756.31;12244942;19;19921;-86
2022/08/17 11:00:41;;;;;;;;;;;35.70;38.20;;;34.12;40.63;100770.09;12244028;19;20345;-85
2022/08/17 11:04:51;;;;;;;;;;;35.60;38.10;;;34.09;40.64;100770.59;12243867;19;19919;-87
2022/08/17 11:09:25;;;;;;;;;;;35.60;37.90;;;34.04;40.50;100759.59;12247991;19;19930;-88
2022/08/17 11:13:36;;;;;;;;;;;35.60;37.90;;;34.08;40.38;100767.06;12245034;19;19925;-87
2022/08/17 11:17:44;;;;;;;;;;;35.60;37.80;;;34.07;40.15;100765.38;12249555;19;19921;-86
2022/08/17 11:22:05;;;;;;;;;;;35.60;37.70;;;34.05;39.93;100761.25;12247911;19;20896;-87
2022/08/17 11:26:24;;;;;;;;;;;35.50;37.70;;;33.94;40.30;100738.53;12247821;19;19925;-86
2022/08/17 11:31:22;;;;;;;;;;;35.50;37.70;;;34.09;39.85;100751.63;12242864;19;19919;-85
2022/08/17 11:35:42;;;;;;;;;;;35.50;37.70;;;34.09;39.48;100743.47;12246036;19;20346;-86
2022/08/17 11:40:04;;;;;;;;;;;35.50;37.50;;;34.10;39.62;100736.97;12247891;19;19922;-87
2022/08/17 11:44:21;;;;;;;;;;;35.50;38.00;;;34.07;39.64;100729.34;12244301;19;19923;-85
2022/08/17 11:52:55;;;;;;;;;;;35.50;36.90;;;34.04;39.32;100737.91;12243059;19;19915;-85
2022/08/17 11:56:59;;;;;;;;;;;35.60;37.30;;;34.03;39.37;100720.84;12247579;19;19927;-84
2022/08/17 12:01:11;;;;;;;;;;;35.50;37.20;;;34.09;39.29;100721.78;12245066;19;19919;-85
2022/08/17 12:05:24;;;;;;;;;;;35.50;36.80;;;34.15;39.36;100731.66;12246457;19;20294;-86
2022/08/17 12:09:31;;;;;;;;;;;35.60;37.10;;;34.06;38.81;100706.84;12240427;19;19918;-86
2022/08/17 12:13:57;;;;;;;;;;;35.60;37.40;;;34.29;38.87;100716.75;12244236;19;19978;-87
2022/08/17 12:17:59;;;;;;;;;;;35.70;37.40;;;34.41;38.76;100729.47;12253604;19;19923;-86
2022/08/17 12:22:20;;;;;;;;;;;35.70;37.30;;;34.43;38.56;100721.88;12253037;19;19946;-84
2022/08/17 12:26:29;;;;;;;;;;;35.80;37.30;;;34.27;38.70;100712.63;12258813;19;19922;-86
2022/08/17 12:30:30;;;;;;;;;;;35.80;37.00;;;34.30;38.50;100723.84;12251782;19;19927;-87
2022/08/17 12:34:42;;;;;;;;;;;35.70;36.60;;;34.31;38.60;100720.06;12255327;19;19911;-87
2022/08/17 12:39:02;;;;;;;;;;;35.70;36.80;;;34.37;38.66;100735.34;12255752;19;20304;-86
2022/08/17 12:43:07;;;;;;;;;;;35.70;36.60;;;34.26;38.35;100708.28;12250366;19;19918;-86
2022/08/17 12:47:09;;;;;;;;;;;35.80;36.70;;;34.44;38.27;100734.41;12252239;19;20296;-84
2022/08/17 12:51:11;;;;;;;;;;;35.70;36.80;;;34.37;38.07;100724.50;12244157;19;19923;-87
2022/08/17 12:55:23;;;;;;;;;;;35.80;36.70;;;34.37;37.87;100713.66;12252563;19;19986;-87
2022/08/17 12:59:24;;;;;;;;;;;35.80;36.80;;;34.04;37.76;100670.97;12251471;19;19936;-88
2022/08/17 13:03:29;;;;;;;;;;;35.90;36.70;;;34.28;37.87;100712.41;12253591;19;19922;-85
2022/08/17 13:07:41;;;;;;;;;;;35.70;36.60;;;34.27;37.97;100708.06;12252634;19;19919;-87
2022/08/17 13:11:49;;;;;;;;;;;35.70;36.80;;;34.23;37.85;100687.91;12250659;19;19907;-86
2022/08/17 13:15:59;;;;;;;;;;;35.70;36.50;;;33.87;37.21;100626.75;12253167;19;19907;-87
2022/08/17 13:20:04;;;;;;;;;;;35.60;36.50;;;34.41;37.96;100700.44;12252475;19;19915;-86
2022/08/17 13:24:09;;;;;;;;;;;35.70;36.80;;;34.44;37.34;100699.13;12249910;19;20417;-87
2022/08/17 13:28:17;;;;;;;;;;;35.70;36.10;;;34.42;37.08;100693.94;12250657;19;19915;-87
2022/08/17 13:32:30;;;;;;;;;;;35.70;36.60;;;34.36;37.50;100686.78;12250610;19;20008;-88
2022/08/17 13:36:32;;;;;;;;;;;35.70;36.00;;;34.30;36.98;100688.59;12252170;19;19950;-87
2022/08/17 13:40:36;;;;;;;;;;;35.70;36.10;;;34.35;37.22;100699.53;12250408;19;20266;-87
2022/08/17 13:44:39;;;;;;;;;;;35.70;35.80;;;34.30;37.15;100694.00;12251279;19;19977;-86
2022/08/17 13:48:40;;;;;;;;;;;35.70;36.20;;;34.32;36.99;100694.59;12249187;19;19919;-85
2022/08/17 13:52:43;;;;;;;;;;;35.70;36.10;;;34.37;36.78;100702.78;12246280;19;19921;-85
2022/08/17 13:56:59;;;;;;;;;;;35.60;36.10;;;34.43;37.07;100692.91;12249810;19;19938;-85
2022/08/17 14:01:26;;;;;;;;;;;35.70;36.00;;;34.48;36.81;100695.66;12243885;19;19919;-88
2022/08/17 14:05:29;;;;;;;;;;;35.70;35.80;;;34.42;36.93;100682.28;12247204;19;20342;-87
2022/08/17 14:09:33;;;;;;;;;;;35.80;35.80;;;34.52;36.46;100698.75;12246128;19;19929;-88
2022/08/17 14:13:36;;;;;;;;;;;35.80;35.50;;;34.22;36.96;100642.88;12247439;19;19923;-88
2022/08/17 14:17:38;;;;;;;;;;;35.80;35.90;;;34.53;36.64;100687.63;12247808;19;19921;-86
2022/08/17 14:21:42;;;;;;;;;;;35.80;35.70;;;34.50;36.53;100673.75;12245117;19;19943;-88
2022/08/17 14:25:45;;;;;;;;;;;35.80;35.90;;;34.55;36.60;100668.41;12247863;19;19918;-85
2022/08/17 14:29:47;;;;;;;;;;;35.90;35.70;;;34.58;36.53;100665.22;12245430;19;19923;-86
2022/08/17 14:33:50;;;;;;;;;;;35.90;36.10;;;34.48;36.49;100641.44;12246843;19;19931;-86
2022/08/17 14:37:52;;;;;;;;;;;36.00;35.70;;;34.72;36.07;100679.28;12244179;19;19930;-89
2022/08/17 14:41:54;;;;;;;;;;;36.00;35.50;;;34.55;36.08;100644.00;12242788;19;19914;-89
2022/08/17 14:45:56;;;;;;;;;;;36.00;33.50;;;34.72;36.11;100658.41;12245454;19;19975;-85
2022/08/17 14:49:58;;;;;;;;;;;36.00;35.60;;;34.70;36.09;100646.16;12241736;19;19926;-87
2022/08/17 14:53:59;;;;;;;;;;;36.00;35.30;;;34.80;36.00;100668.03;12243041;19;19930;-86
2022/08/17 14:58:02;;;;;;;;;;;36.10;35.90;;;34.79;35.87;100659.06;12241268;19;19933;-87
2022/08/17 15:02:04;;;;;;;;;;;36.10;35.60;;;34.86;35.74;100660.78;12238908;19;20280;-87
2022/08/17 15:06:13;;;;;;;;;;;36.10;35.50;;;34.84;35.68;100666.47;12239810;19;19998;-87
2022/08/17 15:10:15;;;;;;;;;;;36.10;35.50;;;34.80;35.64;100658.00;12236676;19;19923;-86
2022/08/17 15:14:16;;;;;;;;;;;36.10;35.10;;;34.75;35.71;100652.47;12237645;19;19927;-86
2022/08/17 15:18:18;;;;;;;;;;;36.10;35.10;;;34.64;35.92;100637.09;12238134;19;20365;-85
2022/08/17 15:22:25;;;;;;;;;;;36.10;35.20;;;34.74;35.57;100653.56;12234306;19;20353;-85
2022/08/17 15:26:27;;;;;;;;;;;36.10;35.30;;;34.75;35.90;100652.47;12235497;19;19918;-85
2022/08/17 15:30:29;;;;;;;;;;;36.10;35.60;;;34.80;35.35;100658.00;12235737;19;19911;-87
2022/08/17 15:34:30;;;;;;;;;;;36.10;35.20;;;34.69;35.60;100645.34;12240558;19;19918;-87
2022/08/17 15:38:35;;;;;;;;;;;36.10;35.10;;;34.69;35.33;100648.03;12237811;19;19956;-88
2022/08/17 15:42:37;;;;;;;;;;;36.10;35.30;;;34.80;35.45;100673.44;12233714;19;20321;-85
2022/08/17 15:46:38;;;;;;;;;;;36.10;35.20;;;34.74;35.35;100650.84;12237568;19;19927;-86
2022/08/17 15:50:41;;;;;;;;;;;36.10;35.30;;;34.64;35.56;100647.97;12238348;19;20385;-87
2022/08/17 15:54:47;;;;;;;;;;;36.00;35.10;;;34.66;35.50;100647.72;12249031;19;20260;-85
2022/08/17 15:58:49;;;;;;;;;;;36.00;35.10;;;34.63;35.38;100640.09;12249810;19;20292;-86
2022/08/17 16:02:51;;;;;;;;;;;36.00;35.30;;;34.37;35.40;100599.75;12248171;19;19915;-85
2022/08/17 16:06:52;;;;;;;;;;;35.90;35.10;;;34.61;35.40;100631.38;12258300;19;19915;-86
2022/08/17 16:10:58;;;;;;;;;;;35.90;35.50;;;34.62;35.33;100628.41;12252536;19;20362;-85
2022/08/17 16:15:00;;;;;;;;;;;35.90;35.30;;;34.63;35.32;100634.66;12258673;19;19914;-85
2022/08/17 16:19:01;;;;;;;;;;;35.90;34.80;;;34.61;35.25;100626.75;12255106;19;19918;-86
2022/08/17 16:23:03;;;;;;;;;;;35.80;34.90;;;34.69;35.21;100645.34;12246318;19;19922;-85
2022/08/17 16:27:06;;;;;;;;;;;35.90;35.00;;;34.63;35.06;100626.53;12258521;19;20296;-87
2022/08/17 16:31:09;;;;;;;;;;;35.90;35.10;;;34.75;34.90;100652.47;12255528;19;19978;-86
2022/08/17 16:35:11;;;;;;;;;;;35.90;34.90;;;34.65;34.93;100638.78;12256048;19;20004;-84
2022/08/17 16:39:13;;;;;;;;;;;35.90;34.80;;;34.62;35.08;100628.41;12250990;19;19936;-87
2022/08/17 16:43:15;;;;;;;;;;;35.90;34.80;;;34.49;34.93;100598.88;12255127;19;19918;-85
2022/08/17 16:47:18;;;;;;;;;;;35.90;34.70;;;34.51;34.88;100616.56;12254928;19;19927;-85
2022/08/17 16:51:20;;;;;;;;;;;35.90;34.90;;;34.62;35.02;100628.41;12249960;19;19911;-85
2022/08/17 16:55:21;;;;;;;;;;;35.90;34.70;;;34.58;34.77;100627.25;12255779;19;20322;-85
2022/08/17 16:59:23;;;;;;;;;;;35.80;34.70;;;34.43;34.85;100613.41;12254750;19;19919;-85
2022/08/17 17:03:26;;;;;;;;;;;35.80;34.80;;;34.35;35.00;100623.59;12252644;19;19943;-86
2022/08/17 17:07:36;;;;;;;;;;;35.70;35.10;;;34.36;34.87;100636.09;12254509;19;20333;-86
2022/08/17 17:11:45;;;;;;;;;;;35.60;34.80;;;34.30;34.84;100637.06;12251945;19;19927;-84
2022/08/17 17:16:20;;;;;;;;;;;35.60;35.00;;;34.23;35.12;100636.38;12254083;19;19919;-88
2022/08/17 17:20:24;;;;;;;;;;;35.50;34.90;;;34.06;34.85;100619.28;12248302;19;19922;-85
2022/08/17 17:24:33;;;;;;;;;;;35.40;35.10;;;34.11;35.01;100644.59;12254643;19;20333;-84
2022/08/17 17:28:45;;;;;;;;;;;35.40;35.30;;;34.05;35.00;100642.84;12252262;19;19926;-84
2022/08/17 17:33:05;;;;;;;;;;;35.30;35.30;;;33.96;35.08;100640.75;12250462;19;20242;-85
2022/08/17 17:37:13;;;;;;;;;;;35.30;35.30;;;33.78;35.15;100634.41;12256394;19;19944;-85
2022/08/17 17:41:19;;;;;;;;;;;35.20;35.40;;;33.56;35.29;100618.00;12249724;19;20321;-85
2022/08/17 17:45:25;;;;;;;;;;;35.10;35.50;;;33.15;35.34;100575.69;12253064;19;19943;-85
2022/08/17 17:49:37;;;;;;;;;;;34.90;35.40;;;33.40;35.42;100648.50;12250321;19;19933;-86
2022/08/17 17:54:04;;;;;;;;;;;34.80;35.60;;;33.22;35.44;100639.47;12252135;19;19918;-85
2022/08/17 17:58:34;;;;;;;;;;;34.70;35.60;;;33.04;35.34;100629.59;12251819;19;19919;-85
2022/08/17 18:02:46;;;;;;;;;;;34.50;35.60;;;32.87;35.60;100633.22;12247977;19;19932;-85
2022/08/17 18:07:09;;;;;;;;;;;34.40;36.20;;;32.81;35.74;100645.78;12252036;19;19939;-85
2022/08/17 18:11:36;;;;;;;;;;;34.30;35.90;;;32.65;35.72;100652.72;12248038;19;19918;-84
2022/08/17 18:15:59;;;;;;;;;;;34.00;35.70;;;32.46;35.78;100638.44;12248960;19;19911;-87
2022/08/17 18:20:02;;;;;;;;;;;33.90;35.70;;;32.38;36.04;100652.28;12249978;19;19927;-86
2022/08/17 18:24:06;;;;;;;;;;;33.80;35.80;;;32.27;36.13;100650.34;12249909;19;19978;-84
2022/08/17 18:28:08;;;;;;;;;;;33.70;35.70;;;32.03;35.79;100634.06;12251579;19;19925;-86
2022/08/17 18:32:22;;;;;;;;;;;33.60;35.70;;;31.93;36.16;100640.00;12250510;19;20386;-84
2022/08/17 18:36:31;;;;;;;;;;;33.40;35.70;;;31.81;36.00;100651.75;12250111;19;19919;-84
2022/08/17 18:40:36;;;;;;;;;;;33.30;35.70;;;31.62;35.98;100645.53;12249273;19;19923;-86
2022/08/17 18:44:37;;;;;;;;;;;33.10;35.70;;;31.57;36.39;100658.88;12252056;19;19911;-85
2022/08/17 18:48:55;;;;;;;;;;;33.00;35.80;;;31.39;36.12;100651.63;12251780;19;19934;-85
2022/08/17 18:53:18;;;;;;;;;;;32.90;35.80;;;31.23;36.38;100647.59;12248297;19;19919;-87
2022/08/17 18:57:54;;;;;;;;;;;32.70;35.80;;;31.13;36.35;100660.78;12249920;19;19914;-84
2022/08/17 19:01:56;;;;;;;;;;;32.60;35.90;;;31.00;36.41;100661.72;12246142;19;20242;-85
2022/08/17 19:06:38;;;;;;;;;;;32.50;36.00;;;30.83;36.63;100673.06;12248117;19;19911;-86